createdAt,value
2023-02-04T00:02:02.986Z,3.98
2023-02-04T00:05:45.691Z,4.03
2023-02-04T00:09:28.414Z,4.01
2023-02-04T00:13:12.450Z,3.91
2023-02-04T00:16:55.175Z,3.88
2023-02-04T00:20:37.912Z,3.84
2023-02-04T00:24:20.550Z,3.89
2023-02-04T00:28:04.133Z,3.93
2023-02-04T00:31:48.263Z,4.00
2023-02-04T00:35:31.007Z,3.95
2023-02-04T00:39:13.795Z,3.80
2023-02-04T00:42:56.492Z,3.76
2023-02-04T00:46:39.168Z,3.75
2023-02-04T00:50:23.236Z,3.72
2023-02-04T00:54:06.028Z,3.77
2023-02-04T00:57:48.728Z,3.80
2023-02-04T01:01:31.424Z,3.80
2023-02-04T01:05:14.143Z,3.74
2023-02-04T01:08:58.148Z,3.65
2023-02-04T01:12:41.174Z,3.65
2023-02-04T01:16:23.964Z,3.65
2023-02-04T01:20:07.239Z,3.66
2023-02-04T01:23:50.760Z,3.71
2023-02-04T01:27:34.838Z,3.73
2023-02-04T01:31:18.121Z,3.67
2023-02-04T01:35:01.036Z,3.70
2023-02-04T01:38:43.746Z,3.67
2023-02-04T01:42:26.406Z,3.63
2023-02-04T01:46:10.667Z,3.66
2023-02-04T01:49:55.628Z,3.71
2023-02-04T01:53:39.126Z,3.75
2023-02-04T01:57:21.793Z,3.85
2023-02-04T02:01:07.819Z,3.87
2023-02-04T02:04:51.907Z,3.91
2023-02-04T02:08:34.597Z,3.94
2023-02-04T02:12:17.267Z,3.96
2023-02-04T02:15:59.871Z,4.00
2023-02-04T02:19:43.213Z,4.02
2023-02-04T02:23:44.113Z,4.10
2023-02-04T02:27:26.829Z,4.12
2023-02-04T02:31:09.952Z,4.11
2023-02-04T02:34:52.684Z,4.12
2023-02-04T02:38:35.522Z,4.15
2023-02-04T02:42:20.394Z,4.12
2023-02-04T02:46:03.179Z,4.15
2023-02-04T02:49:45.978Z,4.19
2023-02-04T02:53:28.611Z,4.14
2023-02-04T02:57:14.702Z,4.11
2023-02-04T03:00:59.391Z,4.07
2023-02-04T03:04:44.046Z,4.13
2023-02-04T03:08:26.959Z,4.05
2023-02-04T03:12:09.626Z,3.99
2023-02-04T03:15:52.336Z,3.96
2023-02-04T03:19:37.262Z,3.94
2023-02-04T03:23:20.689Z,3.94
2023-02-04T03:27:03.416Z,3.92
2023-02-04T03:30:53.764Z,4.06
2023-02-04T03:34:37.974Z,4.02
2023-02-04T03:38:20.702Z,3.98
2023-02-04T03:42:03.392Z,3.89
2023-02-04T03:45:46.198Z,4.00
2023-02-04T03:49:29.480Z,3.88
2023-02-04T03:53:13.527Z,3.79
2023-02-04T03:56:56.208Z,3.68
2023-02-04T04:00:38.880Z,3.71
2023-02-04T04:04:21.549Z,3.70
2023-02-04T04:08:04.321Z,3.73
2023-02-04T04:11:48.416Z,3.73
2023-02-04T04:15:31.779Z,3.73
2023-02-04T04:19:14.416Z,3.57
2023-02-04T04:22:57.073Z,3.48
2023-02-04T04:26:39.776Z,3.46
2023-02-04T04:30:23.828Z,3.44
2023-02-04T04:34:06.476Z,3.39
2023-02-04T04:37:49.113Z,3.32
2023-02-04T04:41:31.797Z,3.28
2023-02-04T04:45:14.628Z,3.20
2023-02-04T04:48:58.694Z,3.15
2023-02-04T04:52:41.327Z,3.17
2023-02-04T04:56:24.010Z,3.04
2023-02-04T05:00:11.475Z,3.05
2023-02-04T05:03:54.132Z,3.00
2023-02-04T05:07:38.181Z,3.06
2023-02-04T05:11:20.877Z,3.04
2023-02-04T05:15:03.926Z,3.02
2023-02-04T05:18:46.660Z,3.00
2023-02-04T05:22:29.330Z,2.96
2023-02-04T05:26:17.193Z,2.93
2023-02-04T05:30:08.767Z,2.92
2023-02-04T05:33:51.444Z,2.96
2023-02-04T05:37:34.396Z,2.96
2023-02-04T05:41:18.435Z,2.96
2023-02-04T05:45:01.068Z,2.95
2023-02-04T05:48:43.977Z,3.00
2023-02-04T05:52:26.718Z,2.95
2023-02-04T05:56:09.420Z,2.96
2023-02-04T05:59:53.491Z,2.99
2023-02-04T06:03:36.247Z,2.94
2023-02-04T06:07:19.214Z,3.00
2023-02-04T06:11:01.922Z,2.97
2023-02-04T06:14:44.608Z,2.96
2023-02-04T06:18:28.626Z,2.98
2023-02-04T06:22:11.248Z,2.98
2023-02-04T06:25:53.919Z,2.98
2023-02-04T06:29:36.694Z,2.97
2023-02-04T06:33:19.306Z,3.09
2023-02-04T06:37:03.363Z,3.06
2023-02-04T06:40:49.204Z,3.03
2023-02-04T06:44:31.942Z,3.03
2023-02-04T06:48:14.622Z,2.95
2023-02-04T06:51:57.297Z,3.00
2023-02-04T06:55:41.386Z,2.98
2023-02-04T06:59:26.090Z,2.99
2023-02-04T07:03:08.770Z,3.05
2023-02-04T07:06:51.508Z,3.05
2023-02-04T07:10:34.524Z,3.06
2023-02-04T07:14:19.483Z,3.06
2023-02-04T07:18:02.121Z,3.06
2023-02-04T07:21:44.825Z,3.12
2023-02-04T07:25:27.619Z,3.11
2023-02-04T07:29:14.833Z,3.14
2023-02-04T07:33:07.627Z,3.16
2023-02-04T07:36:50.483Z,3.16
2023-02-04T07:40:33.767Z,3.10
2023-02-04T07:44:16.763Z,3.08
2023-02-04T07:47:59.399Z,3.12
2023-02-04T07:51:43.379Z,3.13
2023-02-04T07:55:26.121Z,3.23
2023-02-04T07:59:08.744Z,3.24
2023-02-04T08:02:51.492Z,3.30
2023-02-04T08:06:34.509Z,3.31
2023-02-04T08:10:18.867Z,3.36
2023-02-04T08:14:01.529Z,3.47
2023-02-04T08:17:44.386Z,3.49
2023-02-04T08:21:27.110Z,3.45
2023-02-04T08:25:11.676Z,3.56
2023-02-04T08:28:56.437Z,3.53
2023-02-04T08:32:39.351Z,3.62
2023-02-04T08:36:23.951Z,3.65
2023-02-04T08:40:07.538Z,3.70
2023-02-04T08:43:50.205Z,3.78
2023-02-04T08:47:34.238Z,3.77
2023-02-04T08:51:17.016Z,3.82
2023-02-04T08:55:00.511Z,3.88
2023-02-04T08:58:43.619Z,3.85
2023-02-04T09:02:26.377Z,3.82
2023-02-04T09:06:10.455Z,3.99
2023-02-04T09:09:53.794Z,4.10
2023-02-04T09:13:36.546Z,4.00
2023-02-04T09:17:19.184Z,3.99
2023-02-04T09:21:01.895Z,3.99
2023-02-04T09:24:45.881Z,3.96
2023-02-04T09:28:28.582Z,4.00
2023-02-04T09:32:11.374Z,4.04
2023-02-04T09:35:54.156Z,4.05
2023-02-04T09:39:36.853Z,3.99
2023-02-04T09:43:25.115Z,4.06
2023-02-04T09:47:07.845Z,4.20
2023-02-04T09:50:51.056Z,4.20
2023-02-04T09:54:34.879Z,4.23
2023-02-04T09:58:22.106Z,4.29
2023-02-04T10:02:12.526Z,4.44
2023-02-04T10:05:55.202Z,4.31
2023-02-04T10:09:37.863Z,4.19
2023-02-04T10:13:25.740Z,4.28
2023-02-04T10:17:09.566Z,4.34
2023-02-04T10:20:56.689Z,4.36
2023-02-04T10:24:39.475Z,4.47
2023-02-04T10:28:34.323Z,4.67
2023-02-04T10:32:28.405Z,4.66
2023-02-04T10:36:11.061Z,4.56
2023-02-04T10:39:53.817Z,4.70
2023-02-04T10:43:37.814Z,4.73
2023-02-04T10:47:22.391Z,4.67
2023-02-04T10:51:05.313Z,4.50
2023-02-04T10:54:48.524Z,4.60
2023-02-04T10:58:32.001Z,4.59
2023-02-04T11:02:33.416Z,4.69
2023-02-04T11:06:19.273Z,4.71
2023-02-04T11:10:01.979Z,4.87
2023-02-04T11:13:46.218Z,5.09
2023-02-04T11:17:33.014Z,5.15
2023-02-04T11:21:19.331Z,5.07
2023-02-04T11:25:02.036Z,5.09
2023-02-04T11:29:09.898Z,5.05
2023-02-04T11:33:03.812Z,5.03
2023-02-04T11:36:58.739Z,4.90
2023-02-04T11:40:42.903Z,4.95
2023-02-04T11:44:25.673Z,5.01
2023-02-04T11:48:14.963Z,5.07
2023-02-04T11:52:15.151Z,5.19
2023-02-04T11:55:57.900Z,5.32
2023-02-04T11:59:43.648Z,5.32
2023-02-04T12:03:30.668Z,5.19
2023-02-04T12:07:14.074Z,5.14
2023-02-04T12:11:07.470Z,5.19
2023-02-04T12:14:58.108Z,5.20
2023-02-04T12:18:42.167Z,5.10
2023-02-04T12:22:24.968Z,4.88
2023-02-04T12:26:08.636Z,4.94
2023-02-04T12:29:51.442Z,5.05
2023-02-04T12:33:34.131Z,5.26
2023-02-04T12:37:18.209Z,5.45
2023-02-04T12:41:01.256Z,5.58
2023-02-04T12:44:44.531Z,5.64
2023-02-04T12:48:27.347Z,5.58
2023-02-04T12:52:10.135Z,5.44
2023-02-04T12:55:54.867Z,5.35
2023-02-04T12:59:38.500Z,5.31
2023-02-04T13:03:22.752Z,5.37
2023-02-04T13:07:07.269Z,5.46
2023-02-04T13:10:52.247Z,5.51
2023-02-04T13:14:36.364Z,5.63
2023-02-04T13:18:19.394Z,5.75
2023-02-04T13:22:02.331Z,5.81
2023-02-04T13:25:45.218Z,5.78
2023-02-04T13:29:27.954Z,5.72
2023-02-04T13:33:12.016Z,5.66
2023-02-04T13:36:55.122Z,5.51
2023-02-04T13:40:39.262Z,5.38
2023-02-04T13:44:21.984Z,5.25
2023-02-04T13:48:04.897Z,5.07
2023-02-04T13:51:48.952Z,4.85
2023-02-04T13:55:33.226Z,4.65
2023-02-04T13:59:16.079Z,4.49
2023-02-04T14:02:58.728Z,4.41
2023-02-04T14:06:43.667Z,4.41
2023-02-04T14:10:27.789Z,4.36
2023-02-04T14:14:10.506Z,4.67
2023-02-04T14:17:53.435Z,5.00
2023-02-04T14:21:36.136Z,5.18
2023-02-04T14:25:18.826Z,5.21
2023-02-04T14:29:04.367Z,5.13
2023-02-04T14:32:47.112Z,5.09
2023-02-04T14:36:29.837Z,5.11
2023-02-04T14:40:13.933Z,5.02
2023-02-04T14:43:59.991Z,4.91
2023-02-04T14:47:44.103Z,4.79
2023-02-04T14:51:26.804Z,4.72
2023-02-04T14:55:10.446Z,4.60
2023-02-04T14:58:53.070Z,4.52
2023-02-04T15:02:35.967Z,4.46
2023-02-04T15:06:20.147Z,4.50
2023-02-04T15:10:03.412Z,4.57
2023-02-04T15:13:46.182Z,4.44
2023-02-04T15:17:29.011Z,4.39
2023-02-04T15:21:11.670Z,4.32
2023-02-04T15:24:55.658Z,4.34
2023-02-04T15:28:38.394Z,4.34
2023-02-04T15:32:21.084Z,4.34
2023-02-04T15:36:03.802Z,4.27
2023-02-04T15:39:46.424Z,4.27
2023-02-04T15:43:30.601Z,4.21
2023-02-04T15:47:13.229Z,4.22
2023-02-04T15:50:56.366Z,4.22
2023-02-04T15:54:40.166Z,4.21
2023-02-04T15:58:22.884Z,4.16
2023-02-04T16:02:06.877Z,4.13
2023-02-04T16:05:49.638Z,4.11
2023-02-04T16:09:32.281Z,4.08
2023-02-04T16:13:14.992Z,4.01
2023-02-04T16:16:57.668Z,3.96
2023-02-04T16:20:41.783Z,3.95
2023-02-04T16:24:24.494Z,3.82
2023-02-04T16:28:07.213Z,3.70
2023-02-04T16:31:50.326Z,3.64
2023-02-04T16:35:33.326Z,3.67
2023-02-04T16:39:17.809Z,3.62
2023-02-04T16:43:00.474Z,3.54
2023-02-04T16:46:43.242Z,3.46
2023-02-04T16:50:25.968Z,3.45
2023-02-04T16:54:09.892Z,3.43
2023-02-04T16:57:53.904Z,3.45
2023-02-04T17:01:36.654Z,3.44
2023-02-04T17:05:19.532Z,3.43
2023-02-04T17:09:02.332Z,3.40
2023-02-04T17:12:45.032Z,3.45
2023-02-04T17:16:29.601Z,3.33
2023-02-04T17:20:12.610Z,3.29
2023-02-04T17:23:56.094Z,3.32
2023-02-04T17:27:38.780Z,3.30
2023-02-04T17:31:22.804Z,3.32
2023-02-04T17:35:07.574Z,3.33
2023-02-04T17:38:50.265Z,3.36
2023-02-04T17:42:32.929Z,3.39
2023-02-04T17:46:15.832Z,3.35
2023-02-04T17:49:58.546Z,3.32
2023-02-04T17:53:42.677Z,3.33
2023-02-04T17:57:25.295Z,3.20
2023-02-04T18:01:12.209Z,3.25
2023-02-04T18:04:56.170Z,3.13
2023-02-04T18:08:42.697Z,3.04
2023-02-04T18:12:25.315Z,2.93
2023-02-04T18:16:20.607Z,2.95
2023-02-04T18:20:03.261Z,2.94
2023-02-04T18:23:47.404Z,3.00
2023-02-04T18:27:31.920Z,3.00
2023-02-04T18:31:41.141Z,3.00
2023-02-04T18:35:40.141Z,3.01
2023-02-04T18:39:29.018Z,3.04
2023-02-04T18:43:24.655Z,3.04
2023-02-04T18:47:13.902Z,3.00
2023-02-04T18:50:56.585Z,2.95
2023-02-04T18:54:42.255Z,2.80
2023-02-04T18:58:29.843Z,2.63
2023-02-04T19:02:29.168Z,2.53
2023-02-04T19:06:25.388Z,2.45
2023-02-04T19:10:26.871Z,2.39
2023-02-04T19:14:18.765Z,2.37
2023-02-04T19:18:05.172Z,2.34
2023-02-04T19:21:48.911Z,2.28
2023-02-04T19:25:35.538Z,2.29
2023-02-04T19:29:37.999Z,2.30
2023-02-04T19:33:24.336Z,2.27
2023-02-04T19:37:17.389Z,2.24
2023-02-04T19:41:01.476Z,2.26
2023-02-04T19:44:45.705Z,2.28
2023-02-04T19:48:34.548Z,2.34
2023-02-04T19:52:34.755Z,2.19
2023-02-04T19:56:29.517Z,2.03
2023-02-04T20:00:29.656Z,1.89
2023-02-04T20:04:15.482Z,1.94
2023-02-04T20:08:01.163Z,2.03
2023-02-04T20:12:00.385Z,2.14
2023-02-04T20:15:44.094Z,2.15
2023-02-04T20:19:29.249Z,2.10
2023-02-04T20:23:19.795Z,1.94
2023-02-04T20:27:13.600Z,1.84
2023-02-04T20:30:58.916Z,1.87
2023-02-04T20:34:42.034Z,1.85
2023-02-04T20:38:24.679Z,1.88
2023-02-04T20:42:24.488Z,1.92
2023-02-04T20:46:08.752Z,1.94
2023-02-04T20:49:55.146Z,2.01
2023-02-04T20:53:39.010Z,2.17
2023-02-04T20:57:23.059Z,2.46
2023-02-04T21:01:19.646Z,2.50
2023-02-04T21:05:02.425Z,2.42
2023-02-04T21:08:46.158Z,2.27
2023-02-04T21:12:30.192Z,2.18
2023-02-04T21:16:12.869Z,2.19
2023-02-04T21:19:55.558Z,2.14
2023-02-04T21:23:39.116Z,2.17
2023-02-04T21:27:23.108Z,2.08
2023-02-04T21:31:07.287Z,2.02
2023-02-04T21:34:50.017Z,1.99
2023-02-04T21:38:32.673Z,1.92
2023-02-04T21:42:15.358Z,1.93
2023-02-04T21:45:58.425Z,1.94
2023-02-04T21:49:43.155Z,1.98
2023-02-04T21:53:25.965Z,2.01
2023-02-04T21:57:08.599Z,2.01
2023-02-04T22:00:51.246Z,2.07
2023-02-04T22:04:33.894Z,2.12
2023-02-04T22:08:17.933Z,2.15
2023-02-04T22:12:00.866Z,2.16
2023-02-04T22:15:43.683Z,2.16
2023-02-04T22:19:26.704Z,2.19
2023-02-04T22:23:09.436Z,2.17
2023-02-04T22:26:53.965Z,2.20
2023-02-04T22:30:37.695Z,2.22
2023-02-04T22:34:20.387Z,2.22
2023-02-04T22:38:03.385Z,2.12
2023-02-04T22:41:46.179Z,2.09
2023-02-04T22:45:30.239Z,2.06
2023-02-04T22:49:13.797Z,2.05
2023-02-04T22:52:56.528Z,2.05
2023-02-04T22:56:39.245Z,2.06
2023-02-04T23:00:22.297Z,2.01
2023-02-04T23:04:06.329Z,1.90
2023-02-04T23:07:48.988Z,1.83
2023-02-04T23:11:31.644Z,1.81
2023-02-04T23:15:14.978Z,1.86
2023-02-04T23:18:57.673Z,1.76
2023-02-04T23:22:41.742Z,1.61
2023-02-04T23:26:24.565Z,1.47
2023-02-04T23:30:08.291Z,1.42
2023-02-04T23:33:50.990Z,1.42
2023-02-04T23:37:33.925Z,1.41
2023-02-04T23:41:18.092Z,1.44
2023-02-04T23:45:02.904Z,1.43
2023-02-04T23:48:45.559Z,1.44
2023-02-04T23:52:29.360Z,1.41
2023-02-04T23:56:12.069Z,1.37
2023-02-04T23:59:56.179Z,1.30
